sensor_id;sensor_type;location;lat;lon;timestamp;P1;durP1;ratioP1;P2;durP2;ratioP2
14251;SDS011;7210;51.502;10.722;2023-06-04T00:01:43;4.73;;;3.20;;
14251;SDS011;7210;51.502;10.722;2023-06-04T00:04:11;4.50;;;2.37;;
14251;SDS011;7210;51.502;10.722;2023-06-04T00:06:38;3.60;;;2.60;;
14251;SDS011;7210;51.502;10.722;2023-06-04T00:09:06;4.43;;;2.53;;
14251;SDS011;7210;51.502;10.722;2023-06-04T00:11:34;5.03;;;2.80;;
14251;SDS011;7210;51.502;10.722;2023-06-04T00:14:02;3.77;;;2.50;;
14251;SDS011;7210;51.502;10.722;2023-06-04T00:16:29;3.70;;;2.50;;
14251;SDS011;7210;51.502;10.722;2023-06-04T00:18:56;2.70;;;2.50;;
14251;SDS011;7210;51.502;10.722;2023-06-04T00:21:23;2.40;;;2.20;;
14251;SDS011;7210;51.502;10.722;2023-06-04T00:23:51;3.87;;;2.30;;
14251;SDS011;7210;51.502;10.722;2023-06-04T00:26:19;2.40;;;2.20;;
14251;SDS011;7210;51.502;10.722;2023-06-04T00:28:47;3.50;;;2.30;;
14251;SDS011;7210;51.502;10.722;2023-06-04T00:31:14;3.10;;;2.50;;
14251;SDS011;7210;51.502;10.722;2023-06-04T00:33:41;2.83;;;2.53;;
14251;SDS011;7210;51.502;10.722;2023-06-04T00:36:09;3.37;;;2.30;;
14251;SDS011;7210;51.502;10.722;2023-06-04T00:38:36;4.60;;;2.20;;
14251;SDS011;7210;51.502;10.722;2023-06-04T00:41:07;3.23;;;2.03;;
14251;SDS011;7210;51.502;10.722;2023-06-04T00:43:36;3.00;;;2.10;;
14251;SDS011;7210;51.502;10.722;2023-06-04T00:46:05;4.53;;;2.83;;
14251;SDS011;7210;51.502;10.722;2023-06-04T00:48:33;3.00;;;2.60;;
14251;SDS011;7210;51.502;10.722;2023-06-04T00:51:02;2.83;;;2.30;;
14251;SDS011;7210;51.502;10.722;2023-06-04T00:53:30;3.47;;;2.50;;
14251;SDS011;7210;51.502;10.722;2023-06-04T00:55:58;4.93;;;2.63;;
14251;SDS011;7210;51.502;10.722;2023-06-04T00:58:25;2.50;;;2.30;;
14251;SDS011;7210;51.502;10.722;2023-06-04T01:00:54;3.27;;;2.33;;
14251;SDS011;7210;51.502;10.722;2023-06-04T01:03:29;3.27;;;2.37;;
14251;SDS011;7210;51.502;10.722;2023-06-04T01:06:07;3.30;;;2.90;;
14251;SDS011;7210;51.502;10.722;2023-06-04T01:08:49;3.70;;;2.53;;
14251;SDS011;7210;51.502;10.722;2023-06-04T01:11:29;3.10;;;2.40;;
14251;SDS011;7210;51.502;10.722;2023-06-04T01:14:01;3.77;;;2.43;;
14251;SDS011;7210;51.502;10.722;2023-06-04T01:16:31;4.53;;;2.53;;
14251;SDS011;7210;51.502;10.722;2023-06-04T01:19:11;2.67;;;2.47;;
14251;SDS011;7210;51.502;10.722;2023-06-04T01:22:10;3.40;;;2.50;;
14251;SDS011;7210;51.502;10.722;2023-06-04T01:24:46;3.80;;;2.50;;
14251;SDS011;7210;51.502;10.722;2023-06-04T01:27:22;2.73;;;2.30;;
14251;SDS011;7210;51.502;10.722;2023-06-04T01:29:50;3.50;;;2.50;;
14251;SDS011;7210;51.502;10.722;2023-06-04T01:32:19;3.83;;;2.50;;
14251;SDS011;7210;51.502;10.722;2023-06-04T01:34:46;2.57;;;2.30;;
14251;SDS011;7210;51.502;10.722;2023-06-04T01:37:19;4.47;;;2.70;;
14251;SDS011;7210;51.502;10.722;2023-06-04T01:39:47;3.00;;;2.53;;
14251;SDS011;7210;51.502;10.722;2023-06-04T01:42:14;3.63;;;2.70;;
14251;SDS011;7210;51.502;10.722;2023-06-04T01:44:41;2.20;;;2.00;;
14251;SDS011;7210;51.502;10.722;2023-06-04T01:47:08;4.23;;;2.40;;
14251;SDS011;7210;51.502;10.722;2023-06-04T01:49:36;2.80;;;2.43;;
14251;SDS011;7210;51.502;10.722;2023-06-04T01:52:07;2.83;;;2.50;;
14251;SDS011;7210;51.502;10.722;2023-06-04T01:54:36;3.87;;;2.50;;
14251;SDS011;7210;51.502;10.722;2023-06-04T01:57:03;3.20;;;2.73;;
14251;SDS011;7210;51.502;10.722;2023-06-04T01:59:31;3.23;;;2.67;;
14251;SDS011;7210;51.502;10.722;2023-06-04T02:01:59;3.83;;;2.70;;
14251;SDS011;7210;51.502;10.722;2023-06-04T02:04:27;2.97;;;2.67;;
14251;SDS011;7210;51.502;10.722;2023-06-04T02:06:56;3.10;;;2.60;;
14251;SDS011;7210;51.502;10.722;2023-06-04T02:09:24;3.97;;;2.73;;
14251;SDS011;7210;51.502;10.722;2023-06-04T02:11:52;4.83;;;2.80;;
14251;SDS011;7210;51.502;10.722;2023-06-04T02:14:19;3.40;;;2.80;;
14251;SDS011;7210;51.502;10.722;2023-06-04T02:16:47;3.80;;;2.90;;
14251;SDS011;7210;51.502;10.722;2023-06-04T02:19:15;3.83;;;2.70;;
14251;SDS011;7210;51.502;10.722;2023-06-04T02:21:43;3.43;;;2.60;;
14251;SDS011;7210;51.502;10.722;2023-06-04T02:24:12;4.47;;;2.43;;
14251;SDS011;7210;51.502;10.722;2023-06-04T02:26:40;3.40;;;2.67;;
14251;SDS011;7210;51.502;10.722;2023-06-04T02:29:08;4.63;;;2.63;;
14251;SDS011;7210;51.502;10.722;2023-06-04T02:31:35;4.23;;;3.10;;
14251;SDS011;7210;51.502;10.722;2023-06-04T02:34:02;4.47;;;2.97;;
14251;SDS011;7210;51.502;10.722;2023-06-04T02:36:30;5.47;;;2.67;;
14251;SDS011;7210;51.502;10.722;2023-06-04T02:39:01;3.03;;;2.70;;
14251;SDS011;7210;51.502;10.722;2023-06-04T02:41:30;3.10;;;2.80;;
14251;SDS011;7210;51.502;10.722;2023-06-04T02:43:57;3.10;;;2.80;;
14251;SDS011;7210;51.502;10.722;2023-06-04T02:46:24;3.63;;;2.60;;
14251;SDS011;7210;51.502;10.722;2023-06-04T02:48:52;3.73;;;2.70;;
14251;SDS011;7210;51.502;10.722;2023-06-04T02:51:19;3.83;;;2.50;;
14251;SDS011;7210;51.502;10.722;2023-06-04T02:53:46;2.67;;;2.47;;
14251;SDS011;7210;51.502;10.722;2023-06-04T02:56:14;2.90;;;2.70;;
14251;SDS011;7210;51.502;10.722;2023-06-04T02:58:54;2.80;;;2.60;;
14251;SDS011;7210;51.502;10.722;2023-06-04T03:01:22;2.83;;;2.60;;
14251;SDS011;7210;51.502;10.722;2023-06-04T03:03:49;3.07;;;2.77;;
14251;SDS011;7210;51.502;10.722;2023-06-04T03:06:17;3.37;;;2.60;;
14251;SDS011;7210;51.502;10.722;2023-06-04T03:08:46;3.13;;;2.43;;
14251;SDS011;7210;51.502;10.722;2023-06-04T03:11:13;2.60;;;2.40;;
14251;SDS011;7210;51.502;10.722;2023-06-04T03:13:41;5.57;;;2.50;;
14251;SDS011;7210;51.502;10.722;2023-06-04T03:16:09;2.80;;;2.60;;
14251;SDS011;7210;51.502;10.722;2023-06-04T03:18:38;3.00;;;2.67;;
14251;SDS011;7210;51.502;10.722;2023-06-04T03:21:06;3.73;;;2.60;;
14251;SDS011;7210;51.502;10.722;2023-06-04T03:23:37;3.00;;;2.70;;
14251;SDS011;7210;51.502;10.722;2023-06-04T03:26:04;4.40;;;2.60;;
14251;SDS011;7210;51.502;10.722;2023-06-04T03:28:33;3.07;;;2.77;;
14251;SDS011;7210;51.502;10.722;2023-06-04T03:31:07;3.87;;;2.80;;
14251;SDS011;7210;51.502;10.722;2023-06-04T03:33:36;4.00;;;2.90;;
14251;SDS011;7210;51.502;10.722;2023-06-04T03:36:03;3.30;;;2.83;;
14251;SDS011;7210;51.502;10.722;2023-06-04T03:38:31;3.00;;;2.40;;
14251;SDS011;7210;51.502;10.722;2023-06-04T03:40:58;2.93;;;2.60;;
14251;SDS011;7210;51.502;10.722;2023-06-04T03:43:25;2.83;;;2.60;;
14251;SDS011;7210;51.502;10.722;2023-06-04T03:45:57;2.67;;;2.33;;
14251;SDS011;7210;51.502;10.722;2023-06-04T03:48:26;2.60;;;2.40;;
14251;SDS011;7210;51.502;10.722;2023-06-04T03:50:53;3.40;;;2.90;;
14251;SDS011;7210;51.502;10.722;2023-06-04T03:53:20;3.20;;;2.60;;
14251;SDS011;7210;51.502;10.722;2023-06-04T03:55:48;3.47;;;2.80;;
14251;SDS011;7210;51.502;10.722;2023-06-04T03:58:19;3.30;;;3.00;;
14251;SDS011;7210;51.502;10.722;2023-06-04T04:00:49;4.47;;;2.57;;
14251;SDS011;7210;51.502;10.722;2023-06-04T04:03:19;3.17;;;2.87;;
14251;SDS011;7210;51.502;10.722;2023-06-04T04:05:48;3.73;;;3.07;;
14251;SDS011;7210;51.502;10.722;2023-06-04T04:08:15;5.67;;;2.93;;
14251;SDS011;7210;51.502;10.722;2023-06-04T04:10:44;4.43;;;3.10;;
14251;SDS011;7210;51.502;10.722;2023-06-04T04:13:11;3.03;;;2.73;;
14251;SDS011;7210;51.502;10.722;2023-06-04T04:15:43;4.10;;;2.80;;
14251;SDS011;7210;51.502;10.722;2023-06-04T04:18:11;5.77;;;2.87;;
14251;SDS011;7210;51.502;10.722;2023-06-04T04:20:39;4.23;;;3.10;;
14251;SDS011;7210;51.502;10.722;2023-06-04T04:23:10;3.00;;;2.70;;
14251;SDS011;7210;51.502;10.722;2023-06-04T04:25:41;3.83;;;2.83;;
14251;SDS011;7210;51.502;10.722;2023-06-04T04:28:09;4.13;;;2.90;;
14251;SDS011;7210;51.502;10.722;2023-06-04T04:30:38;4.43;;;2.97;;
14251;SDS011;7210;51.502;10.722;2023-06-04T04:33:19;3.27;;;2.97;;
14251;SDS011;7210;51.502;10.722;2023-06-04T04:35:50;3.63;;;2.90;;
14251;SDS011;7210;51.502;10.722;2023-06-04T04:38:21;4.47;;;3.23;;
14251;SDS011;7210;51.502;10.722;2023-06-04T04:40:55;4.03;;;2.80;;
14251;SDS011;7210;51.502;10.722;2023-06-04T04:43:28;3.23;;;2.93;;
14251;SDS011;7210;51.502;10.722;2023-06-04T04:46:01;3.57;;;2.90;;
14251;SDS011;7210;51.502;10.722;2023-06-04T04:48:30;3.20;;;3.00;;
14251;SDS011;7210;51.502;10.722;2023-06-04T04:50:57;3.50;;;3.20;;
14251;SDS011;7210;51.502;10.722;2023-06-04T04:53:26;4.37;;;3.00;;
14251;SDS011;7210;51.502;10.722;2023-06-04T04:55:54;6.63;;;3.17;;
14251;SDS011;7210;51.502;10.722;2023-06-04T04:58:21;4.07;;;3.10;;
14251;SDS011;7210;51.502;10.722;2023-06-04T05:00:49;4.40;;;3.17;;
14251;SDS011;7210;51.502;10.722;2023-06-04T05:03:19;6.27;;;3.17;;
14251;SDS011;7210;51.502;10.722;2023-06-04T05:05:47;3.63;;;3.10;;
14251;SDS011;7210;51.502;10.722;2023-06-04T05:08:14;4.47;;;2.87;;
14251;SDS011;7210;51.502;10.722;2023-06-04T05:10:43;5.30;;;2.90;;
14251;SDS011;7210;51.502;10.722;2023-06-04T05:13:11;5.20;;;3.20;;
14251;SDS011;7210;51.502;10.722;2023-06-04T05:15:49;5.47;;;3.10;;
14251;SDS011;7210;51.502;10.722;2023-06-04T05:18:19;3.53;;;2.80;;
14251;SDS011;7210;51.502;10.722;2023-06-04T05:20:48;4.87;;;2.90;;
14251;SDS011;7210;51.502;10.722;2023-06-04T05:23:16;5.20;;;3.70;;
14251;SDS011;7210;51.502;10.722;2023-06-04T05:25:48;3.53;;;3.17;;
14251;SDS011;7210;51.502;10.722;2023-06-04T05:28:17;4.17;;;2.90;;
14251;SDS011;7210;51.502;10.722;2023-06-04T05:30:47;4.43;;;2.70;;
14251;SDS011;7210;51.502;10.722;2023-06-04T05:33:18;3.30;;;3.00;;
14251;SDS011;7210;51.502;10.722;2023-06-04T05:35:54;4.27;;;3.03;;
14251;SDS011;7210;51.502;10.722;2023-06-04T05:38:24;4.27;;;3.20;;
14251;SDS011;7210;51.502;10.722;2023-06-04T05:40:54;4.73;;;2.90;;
14251;SDS011;7210;51.502;10.722;2023-06-04T05:43:24;4.43;;;3.27;;
14251;SDS011;7210;51.502;10.722;2023-06-04T05:45:52;4.80;;;3.30;;
14251;SDS011;7210;51.502;10.722;2023-06-04T05:48:19;4.90;;;2.87;;
14251;SDS011;7210;51.502;10.722;2023-06-04T05:50:46;3.63;;;2.90;;
14251;SDS011;7210;51.502;10.722;2023-06-04T05:53:19;6.97;;;3.43;;
14251;SDS011;7210;51.502;10.722;2023-06-04T05:55:48;3.17;;;2.87;;
14251;SDS011;7210;51.502;10.722;2023-06-04T05:58:17;3.13;;;2.83;;
14251;SDS011;7210;51.502;10.722;2023-06-04T06:00:50;3.47;;;3.10;;
14251;SDS011;7210;51.502;10.722;2023-06-04T06:03:18;4.03;;;3.03;;
14251;SDS011;7210;51.502;10.722;2023-06-04T06:05:47;4.03;;;2.97;;
14251;SDS011;7210;51.502;10.722;2023-06-04T06:08:15;3.67;;;2.97;;
14251;SDS011;7210;51.502;10.722;2023-06-04T06:10:42;5.17;;;3.00;;
14251;SDS011;7210;51.502;10.722;2023-06-04T06:13:13;4.43;;;3.00;;
14251;SDS011;7210;51.502;10.722;2023-06-04T06:15:43;6.07;;;2.70;;
14251;SDS011;7210;51.502;10.722;2023-06-04T06:18:12;3.63;;;2.90;;
14251;SDS011;7210;51.502;10.722;2023-06-04T06:20:39;3.70;;;2.63;;
14251;SDS011;7210;51.502;10.722;2023-06-04T06:23:07;3.20;;;2.87;;
14251;SDS011;7210;51.502;10.722;2023-06-04T06:25:38;3.10;;;2.80;;
14251;SDS011;7210;51.502;10.722;2023-06-04T06:28:11;3.23;;;2.40;;
14251;SDS011;7210;51.502;10.722;2023-06-04T06:30:38;3.33;;;2.40;;
14251;SDS011;7210;51.502;10.722;2023-06-04T06:33:07;3.70;;;2.40;;
14251;SDS011;7210;51.502;10.722;2023-06-04T06:35:34;3.10;;;2.40;;
14251;SDS011;7210;51.502;10.722;2023-06-04T06:38:01;3.63;;;2.60;;
14251;SDS011;7210;51.502;10.722;2023-06-04T06:40:29;3.70;;;2.57;;
14251;SDS011;7210;51.502;10.722;2023-06-04T06:42:56;2.83;;;2.50;;
14251;SDS011;7210;51.502;10.722;2023-06-04T06:45:23;4.27;;;2.77;;
14251;SDS011;7210;51.502;10.722;2023-06-04T06:47:51;3.87;;;2.47;;
14251;SDS011;7210;51.502;10.722;2023-06-04T06:50:19;2.97;;;2.37;;
14251;SDS011;7210;51.502;10.722;2023-06-04T06:52:46;2.60;;;2.37;;
14251;SDS011;7210;51.502;10.722;2023-06-04T06:55:13;7.93;;;2.80;;
14251;SDS011;7210;51.502;10.722;2023-06-04T06:57:41;3.73;;;2.50;;
14251;SDS011;7210;51.502;10.722;2023-06-04T07:00:10;3.90;;;2.77;;
14251;SDS011;7210;51.502;10.722;2023-06-04T07:02:38;5.83;;;4.87;;
14251;SDS011;7210;51.502;10.722;2023-06-04T07:05:06;3.73;;;2.90;;
14251;SDS011;7210;51.502;10.722;2023-06-04T07:07:35;7.53;;;2.63;;
14251;SDS011;7210;51.502;10.722;2023-06-04T07:10:02;4.00;;;2.70;;
14251;SDS011;7210;51.502;10.722;2023-06-04T07:12:30;4.27;;;2.30;;
14251;SDS011;7210;51.502;10.722;2023-06-04T07:14:57;11.73;;;2.80;;
14251;SDS011;7210;51.502;10.722;2023-06-04T07:17:25;3.90;;;2.70;;
14251;SDS011;7210;51.502;10.722;2023-06-04T07:19:53;3.13;;;2.00;;
14251;SDS011;7210;51.502;10.722;2023-06-04T07:22:20;3.03;;;1.87;;
14251;SDS011;7210;51.502;10.722;2023-06-04T07:24:48;2.33;;;1.97;;
14251;SDS011;7210;51.502;10.722;2023-06-04T07:27:19;3.57;;;2.10;;
14251;SDS011;7210;51.502;10.722;2023-06-04T07:29:47;3.47;;;2.33;;
14251;SDS011;7210;51.502;10.722;2023-06-04T07:32:14;4.67;;;2.33;;
14251;SDS011;7210;51.502;10.722;2023-06-04T07:34:41;3.73;;;2.00;;
14251;SDS011;7210;51.502;10.722;2023-06-04T07:37:08;3.70;;;1.90;;
14251;SDS011;7210;51.502;10.722;2023-06-04T07:39:38;4.10;;;2.30;;
14251;SDS011;7210;51.502;10.722;2023-06-04T07:42:07;5.30;;;2.20;;
14251;SDS011;7210;51.502;10.722;2023-06-04T07:44:35;2.70;;;2.23;;
14251;SDS011;7210;51.502;10.722;2023-06-04T07:47:03;2.63;;;2.23;;
14251;SDS011;7210;51.502;10.722;2023-06-04T07:49:31;2.50;;;2.10;;
14251;SDS011;7210;51.502;10.722;2023-06-04T07:51:58;3.10;;;2.00;;
14251;SDS011;7210;51.502;10.722;2023-06-04T07:54:25;2.30;;;1.90;;
14251;SDS011;7210;51.502;10.722;2023-06-04T07:56:55;2.83;;;2.00;;
14251;SDS011;7210;51.502;10.722;2023-06-04T07:59:25;2.87;;;2.07;;
14251;SDS011;7210;51.502;10.722;2023-06-04T08:01:55;6.63;;;2.00;;
14251;SDS011;7210;51.502;10.722;2023-06-04T08:04:23;2.17;;;1.67;;
14251;SDS011;7210;51.502;10.722;2023-06-04T08:06:50;2.83;;;1.60;;
14251;SDS011;7210;51.502;10.722;2023-06-04T08:09:17;2.37;;;1.90;;
14251;SDS011;7210;51.502;10.722;2023-06-04T08:11:45;7.50;;;2.03;;
14251;SDS011;7210;51.502;10.722;2023-06-04T08:14:12;2.77;;;1.83;;
14251;SDS011;7210;51.502;10.722;2023-06-04T08:16:41;3.73;;;1.77;;
14251;SDS011;7210;51.502;10.722;2023-06-04T08:19:08;3.93;;;1.83;;
14251;SDS011;7210;51.502;10.722;2023-06-04T08:21:35;2.77;;;1.57;;
14251;SDS011;7210;51.502;10.722;2023-06-04T08:24:03;2.37;;;1.70;;
14251;SDS011;7210;51.502;10.722;2023-06-04T08:26:30;2.73;;;1.83;;
14251;SDS011;7210;51.502;10.722;2023-06-04T08:29:01;2.50;;;1.80;;
14251;SDS011;7210;51.502;10.722;2023-06-04T08:31:29;5.10;;;1.77;;
14251;SDS011;7210;51.502;10.722;2023-06-04T08:33:58;1.50;;;1.40;;
14251;SDS011;7210;51.502;10.722;2023-06-04T08:36:26;3.20;;;1.80;;
14251;SDS011;7210;51.502;10.722;2023-06-04T08:38:54;2.40;;;1.60;;
14251;SDS011;7210;51.502;10.722;2023-06-04T08:41:23;1.70;;;1.50;;
14251;SDS011;7210;51.502;10.722;2023-06-04T08:43:56;2.70;;;1.73;;
14251;SDS011;7210;51.502;10.722;2023-06-04T08:46:27;1.70;;;1.60;;
14251;SDS011;7210;51.502;10.722;2023-06-04T08:49:00;1.93;;;1.73;;
14251;SDS011;7210;51.502;10.722;2023-06-04T08:51:28;2.40;;;1.90;;
14251;SDS011;7210;51.502;10.722;2023-06-04T08:53:59;3.47;;;1.60;;
14251;SDS011;7210;51.502;10.722;2023-06-04T08:56:26;2.43;;;1.50;;
14251;SDS011;7210;51.502;10.722;2023-06-04T08:58:59;1.73;;;1.60;;
14251;SDS011;7210;51.502;10.722;2023-06-04T09:01:28;2.73;;;1.80;;
14251;SDS011;7210;51.502;10.722;2023-06-04T09:04:00;2.13;;;1.53;;
14251;SDS011;7210;51.502;10.722;2023-06-04T09:06:31;2.33;;;1.53;;
14251;SDS011;7210;51.502;10.722;2023-06-04T09:09:00;2.43;;;1.50;;
14251;SDS011;7210;51.502;10.722;2023-06-04T09:11:33;1.47;;;1.37;;
14251;SDS011;7210;51.502;10.722;2023-06-04T09:14:07;2.10;;;1.60;;
14251;SDS011;7210;51.502;10.722;2023-06-04T09:16:45;5.00;;;1.60;;
14251;SDS011;7210;51.502;10.722;2023-06-04T09:19:15;2.43;;;1.60;;
14251;SDS011;7210;51.502;10.722;2023-06-04T09:21:47;3.13;;;1.67;;
14251;SDS011;7210;51.502;10.722;2023-06-04T09:24:16;6.47;;;1.73;;
14251;SDS011;7210;51.502;10.722;2023-06-04T09:26:43;1.57;;;1.40;;
14251;SDS011;7210;51.502;10.722;2023-06-04T09:29:10;2.00;;;1.50;;
14251;SDS011;7210;51.502;10.722;2023-06-04T09:31:37;3.63;;;1.50;;
14251;SDS011;7210;51.502;10.722;2023-06-04T09:34:05;2.83;;;1.60;;
14251;SDS011;7210;51.502;10.722;2023-06-04T09:36:39;4.83;;;1.50;;
14251;SDS011;7210;51.502;10.722;2023-06-04T09:39:16;2.50;;;1.70;;
14251;SDS011;7210;51.502;10.722;2023-06-04T09:41:44;2.40;;;1.30;;
14251;SDS011;7210;51.502;10.722;2023-06-04T09:44:23;3.23;;;1.60;;
14251;SDS011;7210;51.502;10.722;2023-06-04T09:46:54;1.90;;;1.57;;
14251;SDS011;7210;51.502;10.722;2023-06-04T09:49:22;2.47;;;1.77;;
14251;SDS011;7210;51.502;10.722;2023-06-04T09:51:51;2.27;;;1.60;;
14251;SDS011;7210;51.502;10.722;2023-06-04T09:54:18;3.83;;;1.70;;
14251;SDS011;7210;51.502;10.722;2023-06-04T09:56:45;2.90;;;1.50;;
14251;SDS011;7210;51.502;10.722;2023-06-04T09:59:13;2.00;;;1.50;;
14251;SDS011;7210;51.502;10.722;2023-06-04T10:01:41;1.73;;;1.50;;
14251;SDS011;7210;51.502;10.722;2023-06-04T10:04:09;2.40;;;1.73;;
14251;SDS011;7210;51.502;10.722;2023-06-04T10:06:43;2.90;;;1.70;;
14251;SDS011;7210;51.502;10.722;2023-06-04T10:09:12;2.63;;;1.70;;
14251;SDS011;7210;51.502;10.722;2023-06-04T10:11:42;2.77;;;1.33;;
14251;SDS011;7210;51.502;10.722;2023-06-04T10:14:19;2.17;;;1.73;;
14251;SDS011;7210;51.502;10.722;2023-06-04T10:16:51;2.77;;;1.50;;
14251;SDS011;7210;51.502;10.722;2023-06-04T10:19:23;1.40;;;1.30;;
14251;SDS011;7210;51.502;10.722;2023-06-04T10:21:52;1.83;;;1.57;;
14251;SDS011;7210;51.502;10.722;2023-06-04T10:24:21;3.47;;;1.60;;
14251;SDS011;7210;51.502;10.722;2023-06-04T10:26:49;2.07;;;1.67;;
14251;SDS011;7210;51.502;10.722;2023-06-04T10:29:20;6.83;;;1.63;;
14251;SDS011;7210;51.502;10.722;2023-06-04T10:31:53;1.63;;;1.50;;
14251;SDS011;7210;51.502;10.722;2023-06-04T10:34:21;2.37;;;1.40;;
14251;SDS011;7210;51.502;10.722;2023-06-04T10:36:49;2.20;;;1.50;;
14251;SDS011;7210;51.502;10.722;2023-06-04T10:39:26;7.37;;;1.80;;
14251;SDS011;7210;51.502;10.722;2023-06-04T10:41:58;2.00;;;1.50;;
14251;SDS011;7210;51.502;10.722;2023-06-04T10:44:26;1.43;;;1.33;;
14251;SDS011;7210;51.502;10.722;2023-06-04T10:46:54;2.03;;;1.50;;
14251;SDS011;7210;51.502;10.722;2023-06-04T10:49:27;1.63;;;1.40;;
14251;SDS011;7210;51.502;10.722;2023-06-04T10:51:56;4.97;;;1.50;;
14251;SDS011;7210;51.502;10.722;2023-06-04T10:54:29;2.20;;;1.50;;
14251;SDS011;7210;51.502;10.722;2023-06-04T10:56:57;1.83;;;1.60;;
14251;SDS011;7210;51.502;10.722;2023-06-04T10:59:25;2.60;;;1.43;;
14251;SDS011;7210;51.502;10.722;2023-06-04T11:02:03;2.23;;;1.50;;
14251;SDS011;7210;51.502;10.722;2023-06-04T11:04:32;1.53;;;1.43;;
14251;SDS011;7210;51.502;10.722;2023-06-04T11:07:00;2.30;;;1.63;;
14251;SDS011;7210;51.502;10.722;2023-06-04T11:09:30;2.07;;;1.50;;
14251;SDS011;7210;51.502;10.722;2023-06-04T11:11:59;2.42;;;1.63;;
14251;SDS011;7210;51.502;10.722;2023-06-04T11:14:28;3.40;;;1.43;;
14251;SDS011;7210;51.502;10.722;2023-06-04T11:16:55;2.10;;;1.50;;
14251;SDS011;7210;51.502;10.722;2023-06-04T11:19:23;1.70;;;1.50;;
14251;SDS011;7210;51.502;10.722;2023-06-04T11:21:50;3.03;;;1.40;;
14251;SDS011;7210;51.502;10.722;2023-06-04T11:24:18;2.00;;;1.37;;
14251;SDS011;7210;51.502;10.722;2023-06-04T11:26:48;4.10;;;1.52;;
14251;SDS011;7210;51.502;10.722;2023-06-04T11:29:15;1.67;;;1.48;;
14251;SDS011;7210;51.502;10.722;2023-06-04T11:31:42;2.08;;;1.42;;
14251;SDS011;7210;51.502;10.722;2023-06-04T11:34:11;1.75;;;1.40;;
14251;SDS011;7210;51.502;10.722;2023-06-04T11:36:49;2.60;;;1.45;;
14251;SDS011;7210;51.502;10.722;2023-06-04T11:39:18;2.15;;;1.70;;
14251;SDS011;7210;51.502;10.722;2023-06-04T11:41:48;3.85;;;1.35;;
14251;SDS011;7210;51.502;10.722;2023-06-04T11:44:18;2.50;;;1.70;;
14251;SDS011;7210;51.502;10.722;2023-06-04T11:46:48;2.10;;;1.50;;
14251;SDS011;7210;51.502;10.722;2023-06-04T11:49:19;1.70;;;1.60;;
14251;SDS011;7210;51.502;10.722;2023-06-04T11:51:50;2.95;;;1.70;;
14251;SDS011;7210;51.502;10.722;2023-06-04T11:54:19;1.83;;;1.30;;
14251;SDS011;7210;51.502;10.722;2023-06-04T11:56:49;3.42;;;1.77;;
14251;SDS011;7210;51.502;10.722;2023-06-04T11:59:18;1.67;;;1.30;;
14251;SDS011;7210;51.502;10.722;2023-06-04T12:01:46;1.90;;;1.40;;
14251;SDS011;7210;51.502;10.722;2023-06-04T12:04:15;2.47;;;1.40;;
14251;SDS011;7210;51.502;10.722;2023-06-04T12:06:51;3.38;;;1.55;;
14251;SDS011;7210;51.502;10.722;2023-06-04T12:09:19;1.50;;;1.40;;
14251;SDS011;7210;51.502;10.722;2023-06-04T12:11:50;6.78;;;1.52;;
14251;SDS011;7210;51.502;10.722;2023-06-04T12:14:25;2.10;;;1.35;;
14251;SDS011;7210;51.502;10.722;2023-06-04T12:16:55;2.33;;;1.65;;
14251;SDS011;7210;51.502;10.722;2023-06-04T12:19:23;1.60;;;1.40;;
14251;SDS011;7210;51.502;10.722;2023-06-04T12:22:01;3.70;;;1.60;;
14251;SDS011;7210;51.502;10.722;2023-06-04T12:24:31;2.20;;;1.65;;
14251;SDS011;7210;51.502;10.722;2023-06-04T12:27:02;1.77;;;1.30;;
14251;SDS011;7210;51.502;10.722;2023-06-04T12:29:32;2.13;;;1.75;;
14251;SDS011;7210;51.502;10.722;2023-06-04T12:32:03;2.78;;;1.60;;
14251;SDS011;7210;51.502;10.722;2023-06-04T12:34:33;1.92;;;1.60;;
14251;SDS011;7210;51.502;10.722;2023-06-04T12:37:01;3.50;;;1.58;;
14251;SDS011;7210;51.502;10.722;2023-06-04T12:39:31;1.73;;;1.40;;
14251;SDS011;7210;51.502;10.722;2023-06-04T12:41:58;3.63;;;1.40;;
14251;SDS011;7210;51.502;10.722;2023-06-04T12:44:28;1.67;;;1.40;;
14251;SDS011;7210;51.502;10.722;2023-06-04T12:46:56;2.83;;;1.45;;
14251;SDS011;7210;51.502;10.722;2023-06-04T12:49:23;1.67;;;1.40;;
14251;SDS011;7210;51.502;10.722;2023-06-04T12:51:50;2.33;;;1.38;;
14251;SDS011;7210;51.502;10.722;2023-06-04T12:54:25;1.88;;;1.45;;
14251;SDS011;7210;51.502;10.722;2023-06-04T12:56:56;1.50;;;1.40;;
14251;SDS011;7210;51.502;10.722;2023-06-04T12:59:24;3.58;;;1.55;;
14251;SDS011;7210;51.502;10.722;2023-06-04T13:01:54;2.33;;;1.50;;
14251;SDS011;7210;51.502;10.722;2023-06-04T13:04:21;1.40;;;1.30;;
14251;SDS011;7210;51.502;10.722;2023-06-04T13:06:49;2.88;;;1.67;;
14251;SDS011;7210;51.502;10.722;2023-06-04T13:09:20;1.50;;;1.40;;
14251;SDS011;7210;51.502;10.722;2023-06-04T13:11:48;1.58;;;1.48;;
14251;SDS011;7210;51.502;10.722;2023-06-04T13:14:15;1.45;;;1.35;;
14251;SDS011;7210;51.502;10.722;2023-06-04T13:16:42;2.88;;;1.80;;
14251;SDS011;7210;51.502;10.722;2023-06-04T13:19:12;2.97;;;1.50;;
14251;SDS011;7210;51.502;10.722;2023-06-04T13:21:39;1.88;;;1.42;;
14251;SDS011;7210;51.502;10.722;2023-06-04T13:24:06;2.28;;;1.45;;
14251;SDS011;7210;51.502;10.722;2023-06-04T13:26:37;1.58;;;1.48;;
14251;SDS011;7210;51.502;10.722;2023-06-04T13:29:07;1.98;;;1.60;;
14251;SDS011;7210;51.502;10.722;2023-06-04T13:31:34;2.58;;;1.40;;
14251;SDS011;7210;51.502;10.722;2023-06-04T13:34:01;2.88;;;1.77;;
14251;SDS011;7210;51.502;10.722;2023-06-04T13:36:30;1.77;;;1.35;;
14251;SDS011;7210;51.502;10.722;2023-06-04T13:38:57;5.53;;;1.40;;
14251;SDS011;7210;51.502;10.722;2023-06-04T13:41:24;2.15;;;1.50;;
14251;SDS011;7210;51.502;10.722;2023-06-04T13:43:51;2.83;;;1.40;;
14251;SDS011;7210;51.502;10.722;2023-06-04T13:46:18;1.50;;;1.35;;
14251;SDS011;7210;51.502;10.722;2023-06-04T13:48:46;2.88;;;1.58;;
14251;SDS011;7210;51.502;10.722;2023-06-04T13:51:13;3.35;;;1.65;;
14251;SDS011;7210;51.502;10.722;2023-06-04T13:53:42;3.38;;;1.60;;
14251;SDS011;7210;51.502;10.722;2023-06-04T13:56:09;3.50;;;1.58;;
14251;SDS011;7210;51.502;10.722;2023-06-04T13:58:37;3.28;;;1.77;;
14251;SDS011;7210;51.502;10.722;2023-06-04T14:01:05;1.63;;;1.52;;
14251;SDS011;7210;51.502;10.722;2023-06-04T14:03:32;2.08;;;1.55;;
14251;SDS011;7210;51.502;10.722;2023-06-04T14:06:02;2.40;;;1.65;;
14251;SDS011;7210;51.502;10.722;2023-06-04T14:08:29;1.95;;;1.60;;
14251;SDS011;7210;51.502;10.722;2023-06-04T14:10:58;2.03;;;1.55;;
14251;SDS011;7210;51.502;10.722;2023-06-04T14:13:25;4.20;;;1.60;;
14251;SDS011;7210;51.502;10.722;2023-06-04T14:15:52;2.00;;;1.50;;
14251;SDS011;7210;51.502;10.722;2023-06-04T14:18:20;1.60;;;1.48;;
14251;SDS011;7210;51.502;10.722;2023-06-04T14:20:49;2.72;;;1.70;;
14251;SDS011;7210;51.502;10.722;2023-06-04T14:23:17;1.60;;;1.50;;
14251;SDS011;7210;51.502;10.722;2023-06-04T14:25:44;2.17;;;1.63;;
14251;SDS011;7210;51.502;10.722;2023-06-04T14:28:14;2.15;;;1.65;;
14251;SDS011;7210;51.502;10.722;2023-06-04T14:30:41;3.03;;;1.58;;
14251;SDS011;7210;51.502;10.722;2023-06-04T14:33:08;3.03;;;1.55;;
14251;SDS011;7210;51.502;10.722;2023-06-04T14:35:35;2.83;;;1.40;;
14251;SDS011;7210;51.502;10.722;2023-06-04T14:38:03;3.63;;;1.50;;
14251;SDS011;7210;51.502;10.722;2023-06-04T14:40:31;1.80;;;1.70;;
14251;SDS011;7210;51.502;10.722;2023-06-04T14:43:00;2.38;;;1.65;;
14251;SDS011;7210;51.502;10.722;2023-06-04T14:45:33;2.05;;;1.70;;
14251;SDS011;7210;51.502;10.722;2023-06-04T14:48:01;2.22;;;1.70;;
14251;SDS011;7210;51.502;10.722;2023-06-04T14:50:29;1.73;;;1.40;;
14251;SDS011;7210;51.502;10.722;2023-06-04T14:52:56;2.22;;;1.60;;
14251;SDS011;7210;51.502;10.722;2023-06-04T14:55:23;2.50;;;1.80;;
14251;SDS011;7210;51.502;10.722;2023-06-04T14:57:51;2.25;;;1.95;;
14251;SDS011;7210;51.502;10.722;2023-06-04T15:00:18;1.70;;;1.60;;